Terminal Aerodrome Forecast
Issued by NWS Paducah, KY

Current Version | Previous Version | Text Only | Print | Product List | Glossary On
Versions: 1 2 3 4 5 6 7 8 9 10 11 12 13 14 15 16 17 18 19 20 21 22
000
FTUS43 KPAH 221500 AAB
TAFPAH
TAF AMD
KPAH 221521Z 2215/2312 15009KT 6SM BR OVC012
     FM221600 14008KT 3SM -SHRA OVC006
     FM221800 16012G18KT 3SM SHRA BR OVC003
     FM230300 21008KT 3SM -DZ BR OVC004
     FM230900 24007KT P6SM BKN005 OVC200=

USA.gov is the U.S. government's official web portal to all federal, state and local government web resources and services.